»·PEaware :: XSR361 KJFK-KEWR

XSR361 :: KJFK-KEWR

FLIGHT INFORMATION

Flight Status: Arrived
Operator: Unknown
More flights by this operator :: More flights under this callsign
Pilot: Gabor H. (24209)
Aircraft: EMBRAER PHENOM 300
(E55P)
More flights by this aircraft type
Origin: KJFK Kennedy Intl
United States
Destination: KEWR Newark Intl
United States
More flights between these airports :: More routes between these airports
Route: JFK5 V16 DIXIE V276 RBV V249 SBJ
File this flight plan on PilotEdge
Remarks:
Altitude:
(Current/Filed)
6,000ft
Speed:
(Current/Filed)
280kts
Departed: 03-Dec-22 06:38 AM
Arrived: 03-Dec-22 07:29 AM
Distance/Time
Traveled:
18nm/0:51
Distance/Time
To Go:
Arrived

Flight Plot

Page will automatically refresh every two minutes.

Flight plan parsing failed; only flown route is shown


Map Options




Map Legend


Flown Route
Filed Route
Departure Airport
Arrival Airport
Navaid (VOR, NDB)
Fix

Horizontal Profiles

Position Reports

Time Latitude Longitude Heading Altitude Ground
Speed
03-Dec-22 06:22 40.649134 -73.809882 28 10ft 0kts
03-Dec-22 06:23 40.649134 -73.809882 29 10ft 0kts
03-Dec-22 06:24 40.649134 -73.809882 29 10ft 0kts
03-Dec-22 06:25 40.649134 -73.809882 29 10ft 0kts
03-Dec-22 06:26 40.649134 -73.809882 29 10ft 0kts
03-Dec-22 06:27 40.649134 -73.809882 29 10ft 0kts
03-Dec-22 06:28 40.649134 -73.809882 29 10ft 0kts
03-Dec-22 06:29 40.649134 -73.809882 29 10ft 0kts
03-Dec-22 06:30 40.649134 -73.809882 29 10ft 0kts
03-Dec-22 06:31 40.649181 -73.809847 29 10ft 2kts
03-Dec-22 06:32 40.649834 -73.811413 247 10ft 7kts
03-Dec-22 06:33 40.650050 -73.814442 302 10ft 13kts
03-Dec-22 06:34 40.649114 -73.815920 209 10ft 0kts
03-Dec-22 06:35 40.649114 -73.815920 209 10ft 0kts
03-Dec-22 06:36 40.649079 -73.815946 209 10ft 3kts
03-Dec-22 06:37 40.639869 -73.798198 121 419ft 169kts
03-Dec-22 06:38 40.603025 -73.770827 171 3779ft 170kts
03-Dec-22 06:39 40.555177 -73.792874 212 5003ft 222kts
03-Dec-22 06:40 40.498187 -73.839723 212 5002ft 257kts
03-Dec-22 06:41 40.436016 -73.890658 211 5480ft 262kts
03-Dec-22 06:42 40.373769 -73.941541 211 5999ft 270kts
03-Dec-22 06:43 40.309964 -73.993580 211 5999ft 271kts
03-Dec-22 06:44 40.245996 -74.045635 211 5999ft 271kts
03-Dec-22 06:45 40.182034 -74.097580 212 5999ft 271kts
03-Dec-22 06:46 40.117953 -74.149504 212 5999ft 271kts
03-Dec-22 06:47 40.106544 -74.226796 327 6002ft 268kts
03-Dec-22 06:48 40.173590 -74.268491 327 5368ft 264kts
03-Dec-22 06:49 40.234460 -74.319874 327 4029ft 255kts
03-Dec-22 06:50 40.293881 -74.370074 327 4000ft 255kts
03-Dec-22 06:51 40.353430 -74.420411 327 4000ft 256kts
03-Dec-22 06:52 40.416790 -74.449608 25 4008ft 254kts
03-Dec-22 06:53 40.478368 -74.407513 34 3996ft 242kts
03-Dec-22 06:54 40.503501 -74.325359 73 3216ft 242kts
03-Dec-22 06:55 40.539068 -74.262854 27 2798ft 214kts
03-Dec-22 06:56 40.589377 -74.230294 26 2020ft 185kts
03-Dec-22 06:57 40.632519 -74.202858 26 1108ft 150kts
03-Dec-22 06:58 40.666389 -74.181354 26 500ft 149kts
03-Dec-22 06:59 40.712844 -74.151854 23 1237ft 185kts
03-Dec-22 07:00 40.762978 -74.166248 311 2929ft 208kts
03-Dec-22 07:01 40.773419 -74.242320 277 3000ft 217kts
03-Dec-22 07:02 40.779230 -74.322811 255 2992ft 223kts
03-Dec-22 07:03 40.732835 -74.376207 217 3000ft 226kts
03-Dec-22 07:04 40.682261 -74.426237 217 3000ft 229kts
03-Dec-22 07:05 40.631857 -74.476122 217 2998ft 219kts
03-Dec-22 07:06 40.584819 -74.522690 217 2999ft 208kts
03-Dec-22 07:07 40.537065 -74.565185 183 2998ft 208kts
03-Dec-22 07:08 40.502927 -74.509771 117 3000ft 208kts
03-Dec-22 07:09 40.476543 -74.441542 117 2999ft 209kts
03-Dec-22 07:10 40.477377 -74.373509 57 3001ft 207kts
03-Dec-22 07:11 40.508626 -74.310488 57 2999ft 205kts
03-Dec-22 07:12 40.544645 -74.257142 24 2913ft 193kts
03-Dec-22 07:13 40.591087 -74.228851 25 1958ft 180kts
03-Dec-22 07:14 40.635403 -74.200947 25 1027ft 164kts
03-Dec-22 07:15 40.669572 -74.179472 26 563ft 128kts
03-Dec-22 07:16 40.710530 -74.148498 47 1966ft 206kts
03-Dec-22 07:17 40.763559 -74.136802 302 2989ft 239kts
03-Dec-22 07:18 40.767273 -74.216788 229 3000ft 216kts
03-Dec-22 07:19 40.719101 -74.265817 217 2999ft 218kts
03-Dec-22 07:20 40.670757 -74.314068 217 3000ft 220kts
03-Dec-22 07:21 40.621985 -74.362772 217 2999ft 218kts
03-Dec-22 07:22 40.572278 -74.405544 178 2998ft 214kts
03-Dec-22 07:23 40.549463 -74.342012 97 2566ft 217kts
03-Dec-22 07:24 40.557145 -74.268661 57 2003ft 211kts
03-Dec-22 07:25 40.600370 -74.222247 22 1817ft 213kts
03-Dec-22 07:26 40.648268 -74.192841 26 760ft 147kts
03-Dec-22 07:27 40.679108 -74.173241 25 58ft 107kts
03-Dec-22 07:28 40.692637 -74.165939 357 10ft 0kts
03-Dec-22 07:29 40.694815 -74.168430 295 10ft 4kts
03-Dec-22 07:30 40.697774 -74.166800 26 10ft 36kts
03-Dec-22 07:31 40.703057 -74.167409 276 10ft 20kts
03-Dec-22 07:32 40.705531 -74.170056 39 10ft 0kts
03-Dec-22 07:33 40.705531 -74.170056 39 10ft 0kts
03-Dec-22 07:34 40.705531 -74.170056 39 10ft 0kts

Navigation Log

Ident Type
Flight plan parsing failed, navigation log unavailable